Time;durP1;ratioP1;P1;durP2;ratioP2;P2;SDS_P1;SDS_P2;PMS_P1;PMS_P2;Temp;Humidity;BMP_temperature;BMP_pressure;BME280_temperature;BME280_humidity;BME280_pressure;Samples;Min_cycle;Max_cycle;Signal;HPM_P1;HPM_P2
2023/05/06 00:01:53;;;;;;;5.47;3.13;;;;;;;16.91;100.00;100248.66;31220379;28;20107;-81
2023/05/06 00:16:55;;;;;;;3.47;2.47;;;;;;;15.44;100.00;100256.88;31229856;28;20434;-82
2023/05/06 00:31:57;;;;;;;4.73;2.50;;;;;;;15.70;100.00;100274.69;31242892;28;20058;-81
2023/05/06 00:47:00;;;;;;;3.47;2.23;;;;;;;15.82;100.00;100281.31;31245508;28;20049;-83
2023/05/06 01:02:02;;;;;;;4.33;2.50;;;;;;;14.59;100.00;100275.09;31232920;28;20049;-80
2023/05/06 01:17:08;;;;;;;3.07;1.73;;;;;;;14.24;100.00;100278.94;31205142;28;20057;-80
2023/05/06 01:32:39;;;;;;;3.67;2.50;;;;;;;14.44;100.00;100270.53;31218816;28;20485;-81
2023/05/06 01:47:42;;;;;;;4.33;2.20;;;;;;;13.71;100.00;100269.66;31226590;28;20363;-81
2023/05/06 02:02:46;;;;;;;4.90;1.90;;;;;;;13.76;100.00;100264.44;31211849;28;20054;-81
2023/05/06 02:17:48;;;;;;;3.97;2.00;;;;;;;13.44;100.00;100283.72;31209596;28;20111;-82
2023/05/06 02:32:50;;;;;;;2.70;1.87;;;;;;;13.38;100.00;100301.81;31234128;28;20057;-83
2023/05/06 02:47:52;;;;;;;6.00;1.90;;;;;;;13.25;100.00;100302.53;31246770;28;20053;-81
2023/05/06 03:02:54;;;;;;;3.17;2.03;;;;;;;13.39;100.00;100327.88;31215791;28;20111;-80
2023/05/06 03:17:56;;;;;;;7.20;2.10;;;;;;;13.53;100.00;100341.88;31200426;28;20049;-81
2023/05/06 03:33:00;;;;;;;3.33;1.30;;;;;;;13.67;100.00;100338.00;31212278;28;20108;-82
2023/05/06 03:48:02;;;;;;;7.23;1.83;;;;;;;13.99;100.00;100358.88;31224222;28;20137;-81
2023/05/06 04:03:04;;;;;;;2.27;1.60;;;;;;;14.13;100.00;100387.75;31234373;28;20461;-83
2023/05/06 04:18:07;;;;;;;3.47;1.40;;;;;;;14.34;100.00;100387.09;31240002;28;20061;-81
2023/05/06 04:33:09;;;;;;;3.97;1.53;;;;;;;14.92;100.00;100420.41;31249417;28;20057;-80
2023/05/06 04:48:11;;;;;;;2.97;2.00;;;;;;;15.23;100.00;100423.28;31259651;28;20407;-82
2023/05/06 05:03:13;;;;;;;7.07;2.90;;;;;;;15.68;100.00;100419.41;31234083;28;20045;-83
2023/05/06 05:18:15;;;;;;;3.73;2.03;;;;;;;16.04;100.00;100440.81;31243641;28;20050;-85
2023/05/06 05:33:17;;;;;;;3.03;2.00;;;;;;;16.46;100.00;100454.88;31247449;28;20084;-82
2023/05/06 05:48:19;;;;;;;3.43;1.90;;;;;;;16.33;100.00;100435.00;31224479;28;20426;-81
2023/05/06 06:03:21;;;;;;;5.53;1.43;;;;;;;16.54;100.00;100450.63;31261196;28;20062;-80
2023/05/06 06:18:23;;;;;;;9.43;2.47;;;;;;;17.49;100.00;100447.97;31260569;28;20076;-80
2023/05/06 06:33:25;;;;;;;3.05;1.63;;;;;;;17.77;100.00;100462.50;31263296;28;20062;-86
2023/05/06 06:48:28;;;;;;;2.13;1.10;;;;;;;18.09;100.00;100457.59;31195404;28;20107;-80
2023/05/06 07:03:30;;;;;;;3.72;1.27;;;;;;;18.63;100.00;100479.44;31223381;28;20415;-88
2023/05/06 07:18:32;;;;;;;3.03;1.40;;;;;;;19.41;100.00;100494.88;31289769;28;20053;-88
2023/05/06 07:33:35;;;;;;;3.10;1.17;;;;;;;19.83;91.70;100496.75;31262875;28;20049;-91
2023/05/06 07:48:37;;;;;;;1.80;1.10;;;;;;;20.26;84.18;100508.28;31255844;28;20491;-85
2023/05/06 08:03:41;;;;;;;1.57;1.03;;;;;;;22.49;65.37;100516.72;31235082;28;20061;-86
2023/05/06 08:19:05;;;;;;;1.63;1.00;;;;;;;22.92;58.21;100519.59;31240223;28;20065;-83
2023/05/06 08:34:07;;;;;;;1.55;0.93;;;;;;;23.40;51.84;100525.91;31253701;28;20058;-84
2023/05/06 08:49:09;;;;;;;1.35;0.90;;;;;;;22.45;50.64;100527.25;31257662;28;20075;-85
2023/05/06 09:04:12;;;;;;;6.07;0.80;;;;;;;23.26;46.96;100521.31;31271038;28;20045;-81
2023/05/06 09:19:25;;;;;;;4.20;1.33;;;;;;;23.64;42.99;100533.06;31275350;28;20557;-87
2023/05/06 09:34:27;;;;;;;4.27;1.10;;;;;;;24.14;37.66;100517.31;31215477;28;20136;-81
2023/05/06 09:49:29;;;;;;;1.87;1.07;;;;;;;24.71;35.62;100505.00;31220005;28;20052;-83
2023/05/06 10:04:34;;;;;;;0.80;0.63;;;;;;;24.49;34.09;100499.47;31231800;28;20055;-85
2023/05/06 10:19:40;;;;;;;2.63;0.93;;;;;;;25.36;33.18;100504.63;31210688;28;20425;-81
2023/05/06 10:34:52;;;;;;;1.50;0.60;;;;;;;25.52;31.23;100488.38;31199557;28;20145;-86
2023/05/06 10:50:20;;;;;;;1.20;0.57;;;;;;;25.66;30.12;100490.88;31223488;28;20092;-83
2023/05/06 11:05:23;;;;;;;7.72;1.35;;;;;;;25.64;30.03;100510.09;31218523;28;20050;-83
2023/05/06 11:20:25;;;;;;;3.42;0.93;;;;;;;25.30;30.61;100487.19;31226005;28;20053;-80
2023/05/06 11:35:34;;;;;;;2.92;1.00;;;;;;;23.78;32.44;100476.69;31241993;28;20057;-82
2023/05/06 11:50:36;;;;;;;3.45;1.60;;;;;;;22.37;34.63;100465.34;31223276;28;20553;-83
2023/05/06 12:05:41;;;;;;;7.32;1.23;;;;;;;21.82;34.99;100462.81;31217568;28;20057;-79
2023/05/06 12:20:43;;;;;;;1.25;1.10;;;;;;;21.54;35.57;100473.56;31231337;28;20115;-78
2023/05/06 12:35:45;;;;;;;2.30;1.20;;;;;;;21.47;37.09;100474.00;31208361;28;20090;-79
2023/05/06 12:50:47;;;;;;;3.47;1.27;;;;;;;21.17;37.87;100471.34;31206444;28;20099;-81
2023/05/06 13:05:50;;;;;;;7.03;1.25;;;;;;;21.21;38.52;100473.91;31225425;28;20045;-80
2023/05/06 13:20:52;;;;;;;1.30;0.90;;;;;;;20.77;38.78;100481.06;31237379;28;20080;-85
2023/05/06 13:35:54;;;;;;;3.05;1.15;;;;;;;20.54;39.93;100479.22;31220134;28;20140;-81
2023/05/06 13:50:56;;;;;;;1.90;1.33;;;;;;;20.53;40.63;100483.22;31263587;28;20053;-79
2023/05/06 14:05:58;;;;;;;4.63;1.33;;;;;;;20.49;41.02;100487.41;31245993;28;20072;-83
2023/05/06 14:21:00;;;;;;;2.75;1.70;;;;;;;20.48;40.97;100494.16;31210907;28;20053;-78
2023/05/06 14:36:03;;;;;;;2.83;1.13;;;;;;;20.25;41.21;100493.00;31210052;28;20058;-77
2023/05/06 14:51:05;;;;;;;6.72;1.30;;;;;;;19.60;42.27;100497.56;31212389;28;20465;-78
2023/05/06 15:06:07;;;;;;;6.00;2.03;;;;;;;20.88;40.59;100487.97;31190659;28;20049;-78
2023/05/06 15:21:10;;;;;;;4.30;1.48;;;;;;;19.78;43.08;100491.91;31193750;28;20064;-77
2023/05/06 15:36:12;;;;;;;5.53;3.53;;;;;;;19.56;44.14;100508.75;31162431;28;20061;-77
2023/05/06 15:51:14;;;;;;;6.40;2.45;;;;;;;19.28;45.10;100510.13;31166464;28;20045;-78
2023/05/06 16:06:16;;;;;;;6.18;1.83;;;;;;;19.05;46.35;100497.88;31197701;28;20050;-77
2023/05/06 16:21:18;;;;;;;3.42;1.83;;;;;;;18.83;47.03;100513.88;31198683;28;20053;-78
2023/05/06 16:36:21;;;;;;;8.00;2.88;;;;;;;18.57;49.07;100519.75;31201893;28;20399;-79
2023/05/06 16:51:23;;;;;;;7.50;2.50;;;;;;;18.23;51.18;100537.38;31214009;28;20049;-78
2023/05/06 17:06:29;;;;;;;4.82;2.15;;;;;;;17.88;53.13;100530.69;31208658;28;20058;-78
2023/05/06 17:21:32;;;;;;;4.70;2.75;;;;;;;17.58;56.84;100546.03;31193447;28;20494;-77
2023/05/06 17:36:33;;;;;;;5.97;3.25;;;;;;;17.30;61.58;100586.38;31207048;28;20175;-80
2023/05/06 17:51:36;;;;;;;6.28;2.75;;;;;;;16.92;72.17;100603.16;31231367;28;20384;-79
2023/05/06 18:06:40;;;;;;;11.33;3.70;;;;;;;16.48;97.13;100630.56;31232368;28;20549;-79
2023/05/06 18:21:42;;;;;;;7.50;2.73;;;;;;;16.09;100.00;100677.69;31235315;28;20041;-77
2023/05/06 18:36:44;;;;;;;7.20;2.40;;;;;;;15.57;100.00;100692.69;31196174;28;20722;-79
2023/05/06 18:51:46;;;;;;;7.77;2.80;;;;;;;16.50;100.00;100696.66;31213519;28;20118;-75
2023/05/06 19:06:50;;;;;;;6.23;2.60;;;;;;;15.07;100.00;100712.50;31182786;28;20060;-78
2023/05/06 19:21:52;;;;;;;3.87;2.93;;;;;;;14.66;100.00;100709.28;31179533;28;20406;-75
2023/05/06 19:36:54;;;;;;;9.17;4.43;;;;;;;14.25;100.00;100709.19;31170875;28;20473;-80
2023/05/06 19:51:57;;;;;;;6.03;2.70;;;;;;;13.79;100.00;100705.59;31209074;28;20053;-76
2023/05/06 20:06:58;;;;;;;7.10;3.50;;;;;;;13.59;100.00;100691.25;31177333;28;20046;-76
2023/05/06 20:22:01;;;;;;;4.47;2.73;;;;;;;13.33;100.00;100698.47;31183546;28;20050;-78
2023/05/06 20:37:03;;;;;;;5.20;2.70;;;;;;;13.15;100.00;100714.41;31188373;28;20061;-78
2023/05/06 20:52:06;;;;;;;4.47;2.67;;;;;;;12.85;100.00;100712.66;31174912;28;20042;-80
2023/05/06 21:07:08;;;;;;;6.10;2.87;;;;;;;12.48;100.00;100716.47;31205351;28;20053;-78
2023/05/06 21:22:11;;;;;;;3.30;2.40;;;;;;;12.29;100.00;100736.97;31206541;28;20057;-76
2023/05/06 21:37:13;;;;;;;5.17;2.77;;;;;;;12.14;100.00;100735.69;31178165;28;20080;-78
2023/05/06 21:52:15;;;;;;;5.43;2.87;;;;;;;11.80;100.00;100739.31;31200000;28;20103;-78
2023/05/06 22:07:17;;;;;;;5.37;3.00;;;;;;;11.54;100.00;100759.06;31181872;28;20053;-78
2023/05/06 22:22:19;;;;;;;5.00;2.57;;;;;;;11.42;100.00;100770.47;31212927;28;20103;-76
2023/05/06 22:37:21;;;;;;;5.83;2.37;;;;;;;11.28;100.00;100758.63;31208241;28;20103;-78
2023/05/06 22:52:24;;;;;;;3.77;2.23;;;;;;;11.06;100.00;100762.00;31197926;28;20082;-76
2023/05/06 23:07:25;;;;;;;3.07;2.20;;;;;;;10.93;100.00;100764.44;31209824;28;20449;-78
2023/05/06 23:22:28;;;;;;;18.00;2.60;;;;;;;10.65;100.00;100753.84;31203113;28;20042;-78
2023/05/06 23:37:30;;;;;;;5.17;2.07;;;;;;;10.69;100.00;100728.22;31215579;28;20135;-77
2023/05/06 23:52:32;;;;;;;4.63;1.43;;;;;;;10.36;100.00;100732.44;31205285;28;20495;-78
